createdAt,value
2023-05-31T00:00:26.804Z,101628.63
2023-05-31T00:02:53.436Z,101638.41
2023-05-31T00:05:20.092Z,101632.16
2023-05-31T00:07:46.574Z,101622.56
2023-05-31T00:10:13.044Z,101631.47
2023-05-31T00:12:39.524Z,101640.22
2023-05-31T00:15:06.657Z,101632.28
2023-05-31T00:17:49.810Z,101627.94
2023-05-31T00:20:17.835Z,101631.53
2023-05-31T00:22:44.430Z,101632.66
2023-05-31T00:25:10.956Z,101629.09
2023-05-31T00:27:37.471Z,101629.88
2023-05-31T00:30:04.316Z,101630.78
2023-05-31T00:32:31.229Z,101625.66
2023-05-31T00:34:57.824Z,101624.88
2023-05-31T00:37:24.335Z,101633.78
2023-05-31T00:39:50.979Z,101618.91
2023-05-31T00:42:17.496Z,101624.25
2023-05-31T00:44:44.008Z,101619.72
2023-05-31T00:47:10.761Z,101623.31
2023-05-31T00:49:37.365Z,101615.47
2023-05-31T00:52:05.779Z,101628.69
2023-05-31T00:54:32.354Z,101626.94
2023-05-31T00:56:58.859Z,101626.97
2023-05-31T00:59:25.777Z,101625.31
2023-05-31T01:01:55.149Z,101625.41
2023-05-31T01:04:22.435Z,101622.72
2023-05-31T01:06:51.068Z,101618.31
2023-05-31T01:09:18.832Z,101615.69
2023-05-31T01:12:14.660Z,101620.09
2023-05-31T01:15:09.880Z,101622.84
2023-05-31T01:17:42.377Z,101620.28
2023-05-31T01:20:10.268Z,101618.59
2023-05-31T01:23:03.730Z,101623.81
2023-05-31T01:25:52.110Z,101622.31
2023-05-31T01:28:19.894Z,101624.84
2023-05-31T01:30:47.940Z,101631.94
2023-05-31T01:33:16.608Z,101629.31
2023-05-31T01:35:43.161Z,101626.63
2023-05-31T01:38:09.757Z,101622.34
2023-05-31T01:40:36.801Z,101624.88
2023-05-31T01:43:06.890Z,101623.97
2023-05-31T01:45:35.740Z,101622.25
2023-05-31T01:48:06.302Z,101625.81
2023-05-31T01:50:35.114Z,101627.56
2023-05-31T01:53:01.898Z,101623.09
2023-05-31T01:55:29.300Z,101617.91
2023-05-31T01:57:57.489Z,101616.19
2023-05-31T02:00:27.769Z,101619.66
2023-05-31T02:02:54.987Z,101625.94
2023-05-31T02:05:21.742Z,101625.06
2023-05-31T02:07:51.173Z,101624.22
2023-05-31T02:10:18.043Z,101623.38
2023-05-31T02:12:44.614Z,101619.06
2023-05-31T02:15:14.158Z,101620.91
2023-05-31T02:17:44.076Z,101615.69
2023-05-31T02:20:13.952Z,101615.59
2023-05-31T02:22:42.239Z,101620.91
2023-05-31T02:25:13.665Z,101616.53
2023-05-31T02:27:41.699Z,101608.63
2023-05-31T02:30:09.828Z,101613.94
2023-05-31T02:32:38.947Z,101623.72
2023-05-31T02:35:08.021Z,101619.28
2023-05-31T02:37:35.748Z,101624.66
2023-05-31T02:40:09.318Z,101626.47
2023-05-31T02:42:37.434Z,101623.84
2023-05-31T02:45:04.352Z,101622.13
2023-05-31T02:47:30.888Z,101617.75
2023-05-31T02:49:57.348Z,101616.88
2023-05-31T02:52:24.687Z,101615.19
2023-05-31T02:54:51.304Z,101619.56
2023-05-31T02:57:17.778Z,101608.19
2023-05-31T02:59:45.279Z,101622.41
2023-05-31T03:02:11.822Z,101617.16
2023-05-31T03:04:38.624Z,101611.06
2023-05-31T03:07:05.272Z,101618.13
2023-05-31T03:09:31.812Z,101611.16
2023-05-31T03:11:58.329Z,101615.50
2023-05-31T03:14:24.856Z,101604.16
2023-05-31T03:16:54.451Z,101614.69
2023-05-31T03:19:22.178Z,101613.06
2023-05-31T03:21:48.887Z,101610.44
2023-05-31T03:24:15.761Z,101614.84
2023-05-31T03:26:42.451Z,101611.34
2023-05-31T03:29:11.312Z,101612.22
2023-05-31T03:31:38.111Z,101621.03
2023-05-31T03:34:04.910Z,101611.44
2023-05-31T03:36:35.500Z,101606.25
2023-05-31T03:39:02.324Z,101617.66
2023-05-31T03:41:29.113Z,101608.09
2023-05-31T03:43:55.982Z,101614.31
2023-05-31T03:46:22.812Z,101605.47
2023-05-31T03:48:49.550Z,101602.88
2023-05-31T03:51:16.793Z,101600.19
2023-05-31T03:53:43.327Z,101602.88
2023-05-31T03:56:09.950Z,101595.84
2023-05-31T03:58:36.588Z,101595.91
2023-05-31T04:01:03.690Z,101592.41
2023-05-31T04:03:30.545Z,101595.88
2023-05-31T04:05:57.252Z,101593.25
2023-05-31T04:08:23.821Z,101596.72
2023-05-31T04:10:50.441Z,101594.06
2023-05-31T04:13:16.952Z,101591.50
2023-05-31T04:15:43.506Z,101601.09
2023-05-31T04:18:10.153Z,101602.00
2023-05-31T04:20:36.841Z,101599.34
2023-05-31T04:23:03.328Z,101601.06
2023-05-31T04:25:29.851Z,101599.41
2023-05-31T04:27:57.238Z,101609.03
2023-05-31T04:30:25.298Z,101611.66
2023-05-31T04:32:53.993Z,101613.38
2023-05-31T04:35:21.022Z,101610.75
2023-05-31T04:37:49.478Z,101612.50
2023-05-31T04:40:16.072Z,101611.66
2023-05-31T04:42:43.152Z,101616.91
2023-05-31T04:45:10.541Z,101616.84
2023-05-31T04:47:37.333Z,101614.16
2023-05-31T04:50:04.371Z,101615.00
2023-05-31T04:52:34.901Z,101609.63
2023-05-31T04:55:01.922Z,101615.75
2023-05-31T04:57:32.118Z,101615.72
2023-05-31T04:59:59.731Z,101608.72
2023-05-31T05:02:28.019Z,101601.59
2023-05-31T05:04:54.926Z,101609.53
2023-05-31T05:07:22.481Z,101617.38
2023-05-31T05:09:49.087Z,101612.97
2023-05-31T05:12:15.549Z,101616.44
2023-05-31T05:14:42.030Z,101617.25
2023-05-31T05:17:08.701Z,101627.72
2023-05-31T05:19:35.433Z,101621.63
2023-05-31T05:22:02.098Z,101625.09
2023-05-31T05:24:28.709Z,101618.00
2023-05-31T05:26:55.252Z,101625.78
2023-05-31T05:29:21.783Z,101615.22
2023-05-31T05:31:51.666Z,101617.81
2023-05-31T05:34:20.941Z,101615.13
2023-05-31T05:36:48.140Z,101619.47
2023-05-31T05:39:14.704Z,101623.78
2023-05-31T05:41:41.342Z,101623.72
2023-05-31T05:44:07.853Z,101628.94
2023-05-31T05:46:34.495Z,101628.00
2023-05-31T05:49:01.606Z,101632.31
2023-05-31T05:51:28.097Z,101629.56
2023-05-31T05:53:54.582Z,101635.63
2023-05-31T05:56:21.163Z,101638.19
2023-05-31T05:58:47.915Z,101636.34
2023-05-31T06:01:19.472Z,101642.50
2023-05-31T06:03:48.480Z,101638.00
2023-05-31T06:06:15.440Z,101636.16
2023-05-31T06:08:41.990Z,101643.91
2023-05-31T06:11:08.629Z,101640.22
2023-05-31T06:13:35.204Z,101639.28
2023-05-31T06:16:04.342Z,101633.06
2023-05-31T06:18:31.072Z,101632.94
2023-05-31T06:20:57.955Z,101639.06
2023-05-31T06:23:24.739Z,101642.44
2023-05-31T06:25:52.388Z,101636.22
2023-05-31T06:28:19.566Z,101640.59
2023-05-31T06:30:46.072Z,101637.78
2023-05-31T06:33:13.497Z,101632.47
2023-05-31T06:35:41.964Z,101634.88
2023-05-31T06:38:08.533Z,101639.13
2023-05-31T06:40:37.293Z,101631.97
2023-05-31T06:43:03.790Z,101629.19
2023-05-31T06:45:30.275Z,101631.66
2023-05-31T06:47:58.676Z,101629.84
2023-05-31T06:50:27.802Z,101633.25
2023-05-31T06:52:54.441Z,101624.28
2023-05-31T06:55:21.203Z,101631.09
2023-05-31T06:57:47.715Z,101639.75
2023-05-31T07:00:15.018Z,101624.53
2023-05-31T07:02:41.826Z,101620.84
2023-05-31T07:05:08.509Z,101624.38
2023-05-31T07:07:35.030Z,101627.94
2023-05-31T07:10:02.744Z,101624.28
2023-05-31T07:12:29.339Z,101626.38
2023-05-31T07:14:55.851Z,101622.72
2023-05-31T07:17:22.401Z,101628.84
2023-05-31T07:19:50.359Z,101622.44
2023-05-31T07:22:18.295Z,101626.53
2023-05-31T07:24:45.788Z,101620.25
2023-05-31T07:27:12.356Z,101618.09
2023-05-31T07:29:39.045Z,101626.72
2023-05-31T07:32:06.932Z,101619.75
2023-05-31T07:34:34.462Z,101615.06
2023-05-31T07:37:01.031Z,101618.63
2023-05-31T07:39:27.563Z,101617.72
2023-05-31T07:41:54.090Z,101620.09
2023-05-31T07:44:21.052Z,101617.06
2023-05-31T07:46:47.635Z,101628.63
2023-05-31T07:49:14.198Z,101628.13
2023-05-31T07:51:40.835Z,101620.84
2023-05-31T07:54:07.432Z,101619.91
2023-05-31T07:56:33.984Z,101626.28
2023-05-31T07:59:00.499Z,101619.97
2023-05-31T08:01:27.494Z,101615.50
2023-05-31T08:03:56.073Z,101622.03
2023-05-31T08:06:23.230Z,101630.84
2023-05-31T08:08:49.885Z,101612.94
2023-05-31T08:11:16.492Z,101617.81
2023-05-31T08:13:43.051Z,101615.75
2023-05-31T08:16:09.566Z,101612.75
2023-05-31T08:18:36.167Z,101609.34
2023-05-31T08:21:04.167Z,101610.25
2023-05-31T08:23:31.119Z,101607.69
2023-05-31T08:25:57.751Z,101605.78
2023-05-31T08:28:24.475Z,101606.38
2023-05-31T08:30:51.044Z,101593.44
2023-05-31T08:33:17.613Z,101604.25
2023-05-31T08:35:44.121Z,101600.53
2023-05-31T08:38:10.733Z,101594.03
2023-05-31T08:40:37.500Z,101597.47
2023-05-31T08:43:08.710Z,101591.78
2023-05-31T08:45:36.553Z,101594.19
2023-05-31T08:48:35.654Z,101595.38
2023-05-31T08:51:06.394Z,101589.16
2023-05-31T08:53:35.009Z,101597.88
2023-05-31T08:56:02.573Z,101594.78
2023-05-31T08:58:31.072Z,101600.16
2023-05-31T09:00:57.802Z,101597.34
2023-05-31T09:03:27.349Z,101592.25
2023-05-31T09:05:56.386Z,101593.53
2023-05-31T09:08:23.066Z,101586.50
2023-05-31T09:10:49.625Z,101588.28
2023-05-31T09:13:16.190Z,101585.59
2023-05-31T09:15:45.061Z,101586.94
2023-05-31T09:18:20.486Z,101588.53
2023-05-31T09:20:55.332Z,101582.66
2023-05-31T09:23:21.901Z,101584.94
2023-05-31T09:25:50.507Z,101579.09
2023-05-31T09:28:20.144Z,101572.00
2023-05-31T09:30:46.838Z,101570.28
2023-05-31T09:33:16.502Z,101570.31
2023-05-31T09:35:57.192Z,101566.50
2023-05-31T09:38:33.866Z,101564.84
2023-05-31T09:41:22.339Z,101558.78
2023-05-31T09:43:50.482Z,101558.22
2023-05-31T09:46:19.101Z,101556.19
2023-05-31T09:48:57.332Z,101550.78
2023-05-31T09:51:24.059Z,101557.50
2023-05-31T09:53:58.546Z,101555.06
2023-05-31T09:56:28.500Z,101559.22
2023-05-31T09:58:58.708Z,101547.97
2023-05-31T10:01:26.017Z,101551.53
2023-05-31T10:03:53.522Z,101551.53
2023-05-31T10:06:20.656Z,101542.72
2023-05-31T10:08:47.686Z,101531.56
2023-05-31T10:11:17.796Z,101543.72
2023-05-31T10:13:45.967Z,101539.31
2023-05-31T10:16:12.669Z,101523.81
2023-05-31T10:18:44.769Z,101529.53
2023-05-31T10:21:23.419Z,101522.63
2023-05-31T10:24:03.550Z,101538.44
2023-05-31T10:27:22.866Z,101523.16
2023-05-31T10:29:55.862Z,101523.50
2023-05-31T10:32:27.491Z,101519.91
2023-05-31T10:34:54.322Z,101518.19
2023-05-31T10:37:22.651Z,101514.13
2023-05-31T10:40:11.945Z,101507.13
2023-05-31T10:43:07.263Z,101509.84
2023-05-31T10:45:33.728Z,101503.06
2023-05-31T10:48:14.354Z,101511.34
2023-05-31T10:51:13.635Z,101507.75
2023-05-31T10:53:41.279Z,101506.28
2023-05-31T10:56:10.908Z,101499.34
2023-05-31T10:58:48.405Z,101495.66
2023-05-31T11:01:19.607Z,101495.81
2023-05-31T11:03:47.924Z,101500.56
2023-05-31T11:06:23.265Z,101492.59
2023-05-31T11:09:01.967Z,101495.69
2023-05-31T11:11:34.700Z,101497.56
2023-05-31T11:14:07.565Z,101493.81
2023-05-31T11:16:55.656Z,101501.00
2023-05-31T11:19:28.562Z,101496.31
2023-05-31T11:21:57.028Z,101490.44
2023-05-31T11:24:30.414Z,101485.53
2023-05-31T11:27:01.287Z,101481.47
2023-05-31T11:29:47.659Z,101484.50
2023-05-31T11:32:18.787Z,101487.03
2023-05-31T11:35:04.767Z,101471.22
2023-05-31T11:37:32.990Z,101471.88
2023-05-31T11:40:07.776Z,101473.34
2023-05-31T11:42:38.043Z,101479.75
2023-05-31T11:45:06.394Z,101477.31
2023-05-31T11:47:45.278Z,101472.28
2023-05-31T11:50:17.466Z,101471.41
2023-05-31T11:52:45.398Z,101470.88
2023-05-31T11:55:15.874Z,101472.66
2023-05-31T11:57:47.547Z,101474.13
2023-05-31T12:00:16.412Z,101460.63
2023-05-31T12:02:45.845Z,101461.50
2023-05-31T12:05:13.857Z,101453.94
2023-05-31T12:07:40.865Z,101465.34
2023-05-31T12:10:08.330Z,101458.53
2023-05-31T12:12:36.322Z,101460.78
2023-05-31T12:15:03.433Z,101446.81
2023-05-31T12:17:33.480Z,101437.59
2023-05-31T12:20:01.960Z,101443.16
2023-05-31T12:22:28.930Z,101452.22
2023-05-31T12:24:59.357Z,101441.72
2023-05-31T12:27:43.902Z,101448.72
2023-05-31T12:30:17.735Z,101438.81
2023-05-31T12:32:47.864Z,101435.84
2023-05-31T12:35:15.403Z,101441.53
2023-05-31T12:37:42.426Z,101438.41
2023-05-31T12:40:24.203Z,101430.53
2023-05-31T12:42:51.147Z,101445.75
2023-05-31T12:45:19.814Z,101428.69
2023-05-31T12:47:57.666Z,101433.28
2023-05-31T12:50:24.350Z,101423.56
2023-05-31T12:52:58.219Z,101435.06
2023-05-31T12:55:24.845Z,101430.22
2023-05-31T12:57:52.963Z,101426.38
2023-05-31T13:00:20.210Z,101432.03
2023-05-31T13:02:47.160Z,101427.81
2023-05-31T13:05:14.150Z,101407.28
2023-05-31T13:07:41.572Z,101400.22
2023-05-31T13:10:12.372Z,101415.59
2023-05-31T13:12:39.114Z,101424.06
2023-05-31T13:15:06.470Z,101410.38
2023-05-31T13:17:34.368Z,101404.38
2023-05-31T13:20:10.860Z,101396.09
2023-05-31T14:40:19.846Z,101342.94
2023-05-31T14:42:46.564Z,101336.59
2023-05-31T14:45:13.581Z,101344.22
2023-05-31T14:47:41.024Z,101341.69
2023-05-31T14:50:09.360Z,101342.34
2023-05-31T14:52:35.896Z,101332.50
2023-05-31T14:55:02.399Z,101346.19
2023-05-31T14:57:28.978Z,101337.38
2023-05-31T14:59:55.534Z,101335.94
2023-05-31T15:02:22.044Z,101335.44
2023-05-31T15:04:48.547Z,101329.88
2023-05-31T15:07:15.320Z,101332.88
2023-05-31T15:09:42.054Z,101323.88
2023-05-31T15:12:10.806Z,101330.09
2023-05-31T15:14:37.606Z,101331.38
2023-05-31T15:17:04.289Z,101327.41
2023-05-31T15:19:30.910Z,101323.22
2023-05-31T15:21:57.471Z,101330.66
2023-05-31T15:24:24.002Z,101330.03
2023-05-31T15:26:52.468Z,101325.06
2023-05-31T15:29:19.826Z,101319.66
2023-05-31T15:31:46.454Z,101322.94
2023-05-31T15:34:13.116Z,101318.00
2023-05-31T15:36:39.600Z,101315.63
2023-05-31T15:39:06.956Z,101321.75
2023-05-31T15:41:35.071Z,101313.94
2023-05-31T15:44:03.399Z,101306.66
2023-05-31T15:46:30.025Z,101307.31
2023-05-31T15:48:56.710Z,101299.22
2023-05-31T15:51:24.480Z,101300.53
2023-05-31T15:53:52.317Z,101303.31
2023-05-31T15:56:20.683Z,101302.66
2023-05-31T15:58:47.280Z,101296.59
2023-05-31T16:01:13.937Z,101293.78
2023-05-31T16:03:41.375Z,101286.72
2023-05-31T16:06:07.964Z,101295.16
2023-05-31T16:08:34.688Z,101289.13
2023-05-31T16:11:01.421Z,101291.00
2023-05-31T16:13:28.080Z,101291.31
2023-05-31T16:15:54.729Z,101286.91
2023-05-31T16:18:21.407Z,101284.47
2023-05-31T16:20:48.084Z,101283.38
2023-05-31T16:23:14.636Z,101279.06
2023-05-31T16:25:41.118Z,101289.56
2023-05-31T16:28:07.643Z,101283.19
2023-05-31T16:30:34.153Z,101282.53
2023-05-31T16:33:00.683Z,101286.47
2023-05-31T16:35:27.235Z,101271.00
2023-05-31T16:37:53.749Z,101271.44
2023-05-31T16:40:23.286Z,101273.47
2023-05-31T16:42:51.118Z,101273.81
2023-05-31T16:45:17.688Z,101277.34
2023-05-31T16:47:44.303Z,101278.97
2023-05-31T16:50:11.032Z,101270.72
2023-05-31T16:52:37.689Z,101282.59
2023-05-31T16:55:04.964Z,101270.66
2023-05-31T16:57:31.495Z,101265.66
2023-05-31T16:59:59.091Z,101265.38
2023-05-31T17:02:25.907Z,101267.41
2023-05-31T17:04:52.482Z,101262.56
2023-05-31T17:07:19.216Z,101265.81
2023-05-31T17:09:45.742Z,101260.72
2023-05-31T17:12:12.330Z,101258.03
2023-05-31T17:14:38.797Z,101259.59
2023-05-31T17:17:05.544Z,101258.84
2023-05-31T17:19:32.078Z,101266.81
2023-05-31T17:21:58.781Z,101258.78
2023-05-31T17:24:25.473Z,101256.03
2023-05-31T17:26:51.956Z,101260.19
2023-05-31T17:29:19.433Z,101256.28
2023-05-31T17:31:47.829Z,101258.19
2023-05-31T17:34:14.718Z,101248.63
2023-05-31T17:36:41.482Z,101256.56
2023-05-31T17:39:07.989Z,101250.53
2023-05-31T17:41:34.548Z,101252.47
2023-05-31T17:44:01.322Z,101259.78
2023-05-31T17:46:27.879Z,101251.31
2023-05-31T17:48:54.503Z,101257.94
2023-05-31T17:51:21.089Z,101255.94
2023-05-31T17:53:47.639Z,101258.00
2023-05-31T17:56:14.261Z,101244.31
2023-05-31T17:58:40.870Z,101249.78
2023-05-31T18:01:07.502Z,101241.88
2023-05-31T18:03:34.160Z,101242.59
2023-05-31T18:06:00.805Z,101246.16
2023-05-31T18:08:27.403Z,101241.09
2023-05-31T18:10:53.933Z,101241.63
2023-05-31T18:13:20.573Z,101246.81
2023-05-31T18:15:47.278Z,101246.59
2023-05-31T18:18:14.944Z,101240.78
2023-05-31T18:20:43.104Z,101240.66
2023-05-31T18:23:09.655Z,101243.16
2023-05-31T18:25:36.307Z,101242.25
2023-05-31T18:28:03.614Z,101240.47
2023-05-31T18:30:33.573Z,101240.94
2023-05-31T18:33:00.505Z,101237.59
2023-05-31T18:35:27.124Z,101245.38
2023-05-31T18:37:53.684Z,101247.69
2023-05-31T18:40:20.506Z,101244.56
2023-05-31T18:42:47.015Z,101247.34
2023-05-31T18:45:13.650Z,101247.72
2023-05-31T18:47:40.439Z,101244.38
2023-05-31T18:50:07.917Z,101246.31
2023-05-31T18:52:35.153Z,101246.03
2023-05-31T18:55:01.696Z,101239.63
2023-05-31T18:57:28.835Z,101240.97
2023-05-31T18:59:56.053Z,101244.81
2023-05-31T19:02:22.526Z,101246.03
2023-05-31T19:04:49.068Z,101238.31
2023-05-31T19:07:15.624Z,101236.88
2023-05-31T19:09:42.115Z,101246.31
2023-05-31T19:12:16.180Z,101242.66
2023-05-31T19:14:49.542Z,101234.44
2023-05-31T19:17:16.106Z,101236.63
2023-05-31T19:19:42.669Z,101232.59
2023-05-31T19:22:09.206Z,101230.97
2023-05-31T19:24:35.867Z,101234.19
2023-05-31T19:27:02.405Z,101236.38
2023-05-31T19:29:29.075Z,101230.47
2023-05-31T19:31:55.788Z,101233.59
2023-05-31T19:34:22.315Z,101238.72
2023-05-31T19:36:48.802Z,101238.16
2023-05-31T19:39:17.850Z,101241.44
2023-05-31T19:41:44.798Z,101237.16
2023-05-31T19:44:11.256Z,101240.97
2023-05-31T19:46:37.837Z,101243.84
2023-05-31T19:49:04.635Z,101248.84
2023-05-31T19:51:31.167Z,101247.22
2023-05-31T19:53:57.626Z,101253.69
2023-05-31T19:56:24.172Z,101247.66
2023-05-31T19:58:50.700Z,101264.00
2023-05-31T20:01:17.222Z,101255.59
2023-05-31T20:03:43.830Z,101260.66
2023-05-31T20:06:10.634Z,101260.75
2023-05-31T20:08:37.213Z,101263.66
2023-05-31T20:11:03.717Z,101266.31
2023-05-31T20:13:30.553Z,101266.50
2023-05-31T20:15:57.119Z,101267.59
2023-05-31T20:18:23.813Z,101273.28
2023-05-31T20:20:51.657Z,101266.41
2023-05-31T20:23:18.296Z,101269.31
2023-05-31T20:25:44.913Z,101275.19
2023-05-31T20:28:11.495Z,101273.56
2023-05-31T20:30:37.973Z,101272.69
2023-05-31T20:33:04.557Z,101272.00
2023-05-31T20:35:31.042Z,101278.34
2023-05-31T20:37:57.565Z,101268.03
2023-05-31T20:40:27.228Z,101277.13
2023-05-31T20:42:54.945Z,101272.13
2023-05-31T20:45:21.890Z,101274.34
2023-05-31T20:47:48.425Z,101271.03
2023-05-31T20:50:15.724Z,101271.22
2023-05-31T20:52:42.375Z,101277.53
2023-05-31T20:55:09.758Z,101271.91
2023-05-31T20:57:36.671Z,101270.88
2023-05-31T21:00:04.838Z,101270.97
2023-05-31T21:02:31.606Z,101272.69
2023-05-31T21:05:00.035Z,101274.50
2023-05-31T21:07:27.159Z,101273.53
2023-05-31T21:09:57.053Z,101271.31
2023-05-31T21:12:23.640Z,101270.59
2023-05-31T21:14:50.715Z,101274.09
2023-05-31T21:17:17.224Z,101277.06
2023-05-31T21:19:43.724Z,101273.63
2023-05-31T21:22:10.267Z,101278.09
2023-05-31T21:24:36.828Z,101284.28
2023-05-31T21:27:03.448Z,101270.34
2023-05-31T21:29:29.921Z,101277.13
2023-05-31T21:31:56.555Z,101279.63
2023-05-31T21:34:23.066Z,101285.41
2023-05-31T21:36:49.810Z,101283.19
2023-05-31T21:39:16.335Z,101283.47
2023-05-31T21:41:42.859Z,101288.56
2023-05-31T21:44:09.535Z,101283.50
2023-05-31T21:46:36.111Z,101288.59
2023-05-31T21:49:02.658Z,101289.84
2023-05-31T21:51:29.209Z,101284.53
2023-05-31T21:53:55.778Z,101281.38
2023-05-31T21:56:22.487Z,101287.16
2023-05-31T21:58:49.067Z,101291.22
2023-05-31T22:01:16.121Z,101299.56
2023-05-31T22:03:42.802Z,101302.72
2023-05-31T22:06:09.331Z,101302.78
2023-05-31T22:08:35.874Z,101305.28
2023-05-31T22:11:02.587Z,101304.66
2023-05-31T22:13:31.486Z,101303.91
2023-05-31T22:15:58.597Z,101297.00
2023-05-31T22:18:25.487Z,101293.69
2023-05-31T22:20:54.664Z,101300.03
2023-05-31T22:23:25.163Z,101304.78
2023-05-31T22:25:53.073Z,101302.53
2023-05-31T22:28:21.255Z,101310.97
2023-05-31T22:30:47.925Z,101306.88
2023-05-31T22:33:14.810Z,101314.22
2023-05-31T22:35:41.433Z,101306.31
2023-05-31T22:38:07.958Z,101304.31
2023-05-31T22:40:34.508Z,101299.81
2023-05-31T22:43:03.816Z,101307.06
2023-05-31T22:45:30.359Z,101304.56
2023-05-31T22:47:58.543Z,101307.78
2023-05-31T22:50:25.712Z,101308.25
2023-05-31T22:52:52.315Z,101300.66
2023-05-31T22:55:18.810Z,101299.41
2023-05-31T22:57:45.441Z,101299.50
2023-05-31T23:00:12.554Z,101290.38
2023-05-31T23:02:40.133Z,101290.59
2023-05-31T23:05:08.127Z,101294.72
2023-05-31T23:07:36.429Z,101290.78
2023-05-31T23:10:05.047Z,101289.53
2023-05-31T23:12:32.129Z,101291.00
2023-05-31T23:15:04.299Z,101289.84
2023-05-31T23:17:43.468Z,101300.41
2023-05-31T23:20:15.632Z,101310.34
2023-05-31T23:22:43.656Z,101305.75
2023-05-31T23:25:11.448Z,101312.06
2023-05-31T23:27:38.923Z,101314.06
2023-05-31T23:30:07.556Z,101318.13
2023-05-31T23:32:34.162Z,101310.50
2023-05-31T23:35:01.238Z,101316.16
2023-05-31T23:37:27.827Z,101306.19
2023-05-31T23:39:54.777Z,101316.66
2023-05-31T23:42:21.559Z,101316.78
2023-05-31T23:44:48.022Z,101315.19
2023-05-31T23:47:14.552Z,101319.75
2023-05-31T23:49:41.105Z,101319.19
2023-05-31T23:52:07.661Z,101322.91
2023-05-31T23:54:34.256Z,101326.72
2023-05-31T23:57:00.818Z,101322.22
2023-05-31T23:59:27.584Z,101319.63
